Time;durP1;ratioP1;P1;durP2;ratioP2;P2;SDS_P1;SDS_P2;PMS_P1;PMS_P2;Temp;Humidity;BMP_temperature;BMP_pressure;BME280_temperature;BME280_humidity;BME280_pressure;Samples;Min_cycle;Max_cycle;Signal;HPM_P1;HPM_P2
2022/04/26 03:37:17;;;;;;;;;38.00;29.00;;;;;12.47;56.35;101095.13;5172405;27;45219;-64
2022/04/26 03:39:43;;;;;;;;;38.50;31.00;;;;;12.48;56.13;101081.78;5172627;27;45209;-63
2022/04/26 03:42:09;;;;;;;;;34.00;32.25;;;;;12.40;55.79;101069.06;5173246;27;45027;-64
2022/04/26 03:44:34;;;;;;;;;35.75;32.50;;;;;12.51;56.23;101087.22;5172903;27;44900;-63
2022/04/26 03:47:00;;;;;;;;;44.00;33.25;;;;;12.37;56.27;101067.19;5171653;27;45074;-65
2022/04/26 03:49:25;;;;;;;;;41.75;33.75;;;;;12.49;56.32;101088.94;5170567;27;45151;-63
2022/04/26 03:51:54;;;;;;;;;39.25;31.25;;;;;12.48;56.19;101092.50;5175259;27;44967;-65
2022/04/26 03:54:21;;;;;;;;;38.25;32.75;;;;;12.29;56.39;101055.41;5175188;27;45025;-64
2022/04/26 03:56:47;;;;;;;;;46.00;35.25;;;;;12.47;56.12;101089.78;5175049;27;46261;-66
2022/04/26 03:59:12;;;;;;;;;41.00;32.50;;;;;12.32;56.44;101074.22;5167383;27;45376;-63
2022/04/26 04:01:38;;;;;;;;;39.00;34.25;;;;;12.43;56.21;101093.25;5173212;27;44993;-63
2022/04/26 04:04:03;;;;;;;;;38.25;31.00;;;;;12.42;56.32;101091.44;5173518;27;45466;-68
2022/04/26 04:06:29;;;;;;;;;35.75;31.75;;;;;12.40;55.88;101106.56;5172525;27;47036;-63
2022/04/26 04:08:54;;;;;;;;;32.00;31.00;;;;;12.34;56.82;101093.91;5172393;27;45100;-64
2022/04/26 04:11:19;;;;;;;;;32.00;26.50;;;;;12.34;56.32;101108.25;5175835;27;45236;-66
2022/04/26 04:13:44;;;;;;;;;39.75;33.00;;;;;12.32;57.03;101112.66;5175472;27;45463;-64
2022/04/26 04:16:10;;;;;;;;;40.00;33.00;;;;;12.31;57.59;101104.59;5174887;27;45640;-63
2022/04/26 04:21:19;;;;;;;;;39.00;32.50;;;;;12.31;57.44;101109.94;5177789;27;44946;-68
2022/04/26 04:23:45;;;;;;;;;39.50;33.50;;;;;12.25;57.09;101105.31;5176473;27;44964;-65
2022/04/26 04:26:10;;;;;;;;;46.75;34.25;;;;;12.30;57.25;101113.47;5174868;27;45986;-69
2022/04/26 04:28:36;;;;;;;;;44.50;36.25;;;;;12.29;56.93;101109.91;5174650;27;45052;-62
2022/04/26 04:31:01;;;;;;;;;44.25;35.25;;;;;12.32;57.54;101114.41;5174013;27;45128;-67
2022/04/26 04:33:27;;;;;;;;;47.25;38.00;;;;;12.10;56.66;101079.06;5173833;27;45287;-63
2022/04/26 04:35:53;;;;;;;;;41.50;33.25;;;;;12.38;57.09;101122.63;5173431;27;45095;-67
2022/04/26 04:38:18;;;;;;;;;46.50;36.25;;;;;12.29;57.10;101123.31;5173884;27;45014;-67
2022/04/26 04:40:43;;;;;;;;;50.50;39.00;;;;;12.37;57.34;101133.28;5178191;27;45034;-64
2022/04/26 04:43:12;;;;;;;;;47.25;38.25;;;;;12.32;56.39;101128.75;5182569;27;45043;-64
2022/04/26 04:45:38;;;;;;;;;49.75;38.25;;;;;12.23;57.17;101120.47;5178698;27;45335;-64
2022/04/26 04:48:05;;;;;;;;;49.25;40.50;;;;;12.19;56.97;101126.59;5177879;27;44927;-65
2022/04/26 04:50:34;;;;;;;;;41.50;35.00;;;;;12.32;57.36;101136.78;5177185;27;44873;-70
2022/04/26 04:52:59;;;;;;;;;42.50;34.00;;;;;12.24;57.22;101130.31;5175624;27;45232;-64
2022/04/26 04:55:25;;;;;;;;;45.25;37.25;;;;;12.11;57.81;101115.69;5167151;27;45810;-64
2022/04/26 04:57:50;;;;;;;;;49.75;38.00;;;;;12.30;57.10;101146.53;5178492;27;44952;-64
2022/04/26 05:00:16;;;;;;;;;44.75;36.75;;;;;12.35;57.18;101146.66;5178132;27;45178;-63
2022/04/26 05:02:42;;;;;;;;;64.25;48.00;;;;;12.39;57.28;101161.03;5178284;27;45037;-65
2022/04/26 05:05:07;;;;;;;;;52.00;40.50;;;;;12.44;57.56;101151.31;5177679;27;45604;-68
2022/04/26 05:07:33;;;;;;;;;49.00;37.75;;;;;12.46;57.25;101160.34;5175603;27;44895;-64
2022/04/26 05:09:59;;;;;;;;;43.75;37.00;;;;;12.48;57.10;101169.31;5175074;27;44849;-63
2022/04/26 05:12:24;;;;;;;;;44.50;35.50;;;;;12.49;57.52;101168.47;5175155;27;45317;-63
2022/04/26 05:14:49;;;;;;;;;45.25;38.50;;;;;12.29;56.80;101125.97;5174490;27;45335;-64
2022/04/26 05:17:15;;;;;;;;;46.75;36.00;;;;;12.43;57.26;101169.19;5174937;27;45357;-70
2022/04/26 05:19:40;;;;;;;;;45.25;39.50;;;;;12.46;56.82;101171.94;5173897;27;45509;-65
2022/04/26 05:22:09;;;;;;;;;69.00;52.50;;;;;12.49;57.31;101177.41;5172095;27;45271;-66
2022/04/26 05:24:54;;;;;;;;;46.25;37.75;;;;;12.54;57.19;101185.56;5168576;27;45558;-62
2022/04/26 05:27:27;;;;;;;;;51.50;39.75;;;;;12.15;56.98;101109.53;5175479;27;45184;-68
2022/04/26 05:29:54;;;;;;;;;50.75;39.75;;;;;12.67;57.23;101192.09;5173972;27;45204;-65
2022/04/26 05:32:21;;;;;;;;;53.25;42.25;;;;;12.72;57.19;101195.84;5174295;27;45346;-65
2022/04/26 05:34:47;;;;;;;;;48.50;39.00;;;;;12.74;57.28;101196.78;5169776;27;45719;-66
2022/04/26 05:37:12;;;;;;;;;49.75;40.75;;;;;12.79;56.12;101199.56;5177160;27;45083;-67
2022/04/26 05:39:37;;;;;;;;;56.50;43.75;;;;;12.75;57.01;101195.88;5177494;27;45205;-69
2022/04/26 05:42:03;;;;;;;;;45.25;37.75;;;;;12.31;56.35;101118.88;5179604;27;45130;-68
2022/04/26 05:44:28;;;;;;;;;48.25;39.75;;;;;12.82;56.41;101208.59;5174112;27;45814;-66
2022/04/26 05:46:54;;;;;;;;;57.50;45.75;;;;;12.85;56.69;101214.03;5174701;27;44990;-68
2022/04/26 05:49:19;;;;;;;;;49.00;41.00;;;;;12.85;56.16;101222.09;5174481;27;45238;-71
2022/04/26 05:51:45;;;;;;;;;56.00;38.75;;;;;12.86;55.76;101215.81;5172741;27;45029;-67
2022/04/26 05:54:10;;;;;;;;;60.25;47.25;;;;;12.43;56.14;101142.38;5173862;27;45154;-63
2022/04/26 05:56:35;;;;;;;;;60.75;46.25;;;;;12.88;56.87;101216.75;5176511;27;50704;-65
2022/04/26 05:59:01;;;;;;;;;54.25;42.75;;;;;12.66;56.62;101187.63;5177146;27;45243;-67
2022/04/26 06:01:26;;;;;;;;;55.00;44.50;;;;;12.53;56.74;101171.22;5177435;27;45081;-68
2022/04/26 06:03:52;;;;;;;;;53.75;39.25;;;;;12.74;56.01;101196.78;5172554;27;45074;-70
2022/04/26 06:06:17;;;;;;;;;62.25;45.00;;;;;12.43;56.84;101157.56;5176505;27;45084;-69
2022/04/26 06:08:42;;;;;;;;;66.00;45.75;;;;;12.77;57.09;101220.06;5175663;27;45645;-71
2022/04/26 06:11:08;;;;;;;;;54.50;42.75;;;;;12.80;56.82;101210.34;5172274;27;45204;-66
2022/04/26 06:13:33;;;;;;;;;56.50;42.50;;;;;12.59;56.38;101173.16;5175491;27;45393;-69
2022/04/26 06:15:59;;;;;;;;;63.00;46.25;;;;;12.82;56.80;101210.34;5175928;27;45073;-67
2022/04/26 06:18:24;;;;;;;;;56.75;43.75;;;;;12.84;56.20;101211.31;5175340;27;45129;-64
2022/04/26 06:20:49;;;;;;;;;57.50;43.75;;;;;12.89;56.45;101217.69;5175933;27;45194;-67
2022/04/26 06:23:15;;;;;;;;;57.50;46.00;;;;;12.91;56.92;101211.47;5174537;27;45059;-65
2022/04/26 06:25:40;;;;;;;;;58.75;47.00;;;;;12.91;56.15;101211.47;5153395;27;45206;-64
2022/04/26 06:28:07;;;;;;;;;55.75;44.75;;;;;12.93;56.54;101216.00;5174529;27;44991;-64
2022/04/26 06:30:32;;;;;;;;;79.00;61.25;;;;;12.82;56.31;101200.56;5171603;27;45448;-63
2022/04/26 06:32:57;;;;;;;;;58.00;46.00;;;;;12.67;56.42;101179.63;5171914;27;45380;-65
2022/04/26 06:35:23;;;;;;;;;60.75;46.25;;;;;12.98;56.68;101231.31;5169616;27;45358;-64
2022/04/26 06:37:48;;;;;;;;;60.50;46.75;;;;;12.85;56.19;101199.69;5174724;27;45197;-64
2022/04/26 06:40:14;;;;;;;;;57.25;43.75;;;;;12.81;56.25;101200.50;5173738;27;45434;-63
2022/04/26 06:42:40;;;;;;;;;61.00;46.75;;;;;13.13;56.09;101240.59;5174248;27;45770;-64
2022/04/26 06:45:05;;;;;;;;;58.75;45.25;;;;;13.09;56.05;101236.94;5161737;27;45444;-67
2022/04/26 06:47:30;;;;;;;;;57.50;42.50;;;;;13.17;56.17;101243.41;5145897;27;45494;-65
2022/04/26 06:49:56;;;;;;;;;56.25;44.75;;;;;13.19;56.20;101248.81;5156231;27;45172;-65
2022/04/26 06:52:21;;;;;;;;;54.75;44.00;;;;;13.21;55.89;101249.75;5154787;27;46276;-64
2022/04/26 06:54:46;;;;;;;;;65.00;49.50;;;;;13.19;55.56;101248.81;5150169;27;45705;-63
2022/04/26 06:57:12;;;;;;;;;58.50;47.00;;;;;13.20;55.20;101247.91;5153777;27;45616;-65
2022/04/26 06:59:39;;;;;;;;;57.75;47.00;;;;;13.09;54.99;101227.09;5156682;27;45349;-64
2022/04/26 07:02:05;;;;;;;;;62.50;49.00;;;;;13.12;55.52;101228.97;5155562;27;46027;-64
2022/04/26 07:04:30;;;;;;;;;61.25;44.50;;;;;13.30;55.55;101236.53;5154012;27;45510;-64
2022/04/26 07:06:56;;;;;;;;;75.50;59.00;;;;;13.37;55.12;101253.72;5155683;27;45441;-65
2022/04/26 07:09:22;;;;;;;;;55.75;45.50;;;;;13.17;55.46;101219.25;5136196;27;45506;-65
2022/04/26 07:11:47;;;;;;;;;62.50;47.25;;;;;13.42;55.38;101252.94;5155790;27;45923;-63
2022/04/26 07:14:13;;;;;;;;;57.50;44.75;;;;;13.43;54.41;101238.66;5156205;27;45688;-65
2022/04/26 07:16:38;;;;;;;;;53.75;40.75;;;;;13.49;53.96;101239.69;5156051;27;45767;-65
2022/04/26 07:19:04;;;;;;;;;63.00;46.25;;;;;13.63;53.97;101257.00;5156280;27;45347;-63
2022/04/26 07:21:29;;;;;;;;;59.25;46.25;;;;;13.62;54.78;101257.88;5136673;27;47914;-65
2022/04/26 07:23:54;;;;;;;;;73.25;58.00;;;;;13.70;54.20;101256.25;5155918;27;45380;-65
2022/04/26 07:26:20;;;;;;;;;67.50;49.00;;;;;13.51;53.96;101219.13;5155480;27;45438;-65
2022/04/26 07:28:45;;;;;;;;;62.50;49.25;;;;;13.72;53.54;101254.50;5156590;27;45544;-66
2022/04/26 07:31:10;;;;;;;;;71.50;56.75;;;;;13.76;53.81;101258.16;5155925;27;46472;-67
2022/04/26 07:36:22;;;;;;;;;58.50;45.75;;;;;13.78;54.03;101268.06;5156268;27;45426;-65
2022/04/26 07:38:48;;;;;;;;;62.75;47.25;;;;;13.85;54.17;101277.16;5136682;27;46008;-66
2022/04/26 07:41:13;;;;;;;;;65.00;48.50;;;;;13.59;53.54;101229.16;5155325;27;46897;-67
2022/04/26 07:43:39;;;;;;;;;57.75;47.25;;;;;13.78;53.88;101259.13;5154262;27;49972;-66
2022/04/26 07:46:05;;;;;;;;;59.00;48.00;;;;;13.97;53.31;101289.94;5156184;27;45544;-64
2022/04/26 07:48:30;;;;;;;;;58.00;46.50;;;;;13.85;53.86;101277.16;5155974;27;45360;-63
2022/04/26 07:50:56;;;;;;;;;62.50;48.00;;;;;14.01;53.65;101297.22;5155555;27;45686;-65
2022/04/26 07:53:21;;;;;;;;;63.00;49.00;;;;;14.03;53.40;101283.81;5155405;27;45480;-65
2022/04/26 07:55:47;;;;;;;;;66.50;48.75;;;;;14.13;53.41;101300.13;5137070;27;45486;-66
2022/04/26 07:58:12;;;;;;;;;55.00;44.50;;;;;13.75;52.90;101222.34;5155516;27;45570;-66
2022/04/26 08:00:38;;;;;;;;;65.25;48.00;;;;;14.27;52.70;101296.81;5155507;27;46106;-65
2022/04/26 08:03:05;;;;;;;;;63.75;47.50;;;;;14.27;52.61;101286.06;5155305;27;45293;-68
2022/04/26 08:05:30;;;;;;;;;59.75;45.50;;;;;14.09;52.23;101233.78;5155506;27;45410;-65
2022/04/26 08:07:56;;;;;;;;;56.00;45.50;;;;;14.56;51.51;101308.16;5156019;27;45523;-66
2022/04/26 08:10:21;;;;;;;;;56.25;45.00;;;;;14.59;51.93;101305.56;5155949;27;47204;-65
2022/04/26 08:12:47;;;;;;;;;55.75;44.25;;;;;14.57;51.11;101304.59;5156479;27;45685;-68
2022/04/26 08:15:13;;;;;;;;;58.50;45.25;;;;;14.68;50.96;101324.56;5156087;27;45992;-67
2022/04/26 08:17:39;;;;;;;;;56.25;45.50;;;;;14.51;50.92;101288.34;5156166;27;45476;-65
2022/04/26 08:20:06;;;;;;;;;63.00;47.25;;;;;14.61;50.88;101286.75;5155400;27;45391;-65
2022/04/26 08:22:32;;;;;;;;;61.25;49.00;;;;;14.81;50.79;101312.22;5155619;27;45504;-65
2022/04/26 08:27:41;;;;;;;;;54.00;44.25;;;;;14.90;50.04;101303.44;5153925;27;45581;-65
2022/04/26 08:30:07;;;;;;;;;58.75;46.00;;;;;15.04;49.73;101323.38;5147518;27;46720;-65
2022/04/26 08:32:45;;;;;;;;;56.00;44.25;;;;;14.91;49.40;101311.53;5152436;27;45580;-65
2022/04/26 08:35:13;;;;;;;;;59.75;45.50;;;;;14.91;49.26;101313.28;5143312;27;45495;-67
2022/04/26 08:37:39;;;;;;;;;57.75;45.25;;;;;14.98;49.30;101346.59;5154558;27;45354;-66
2022/04/26 08:40:07;;;;;;;;;56.75;45.25;;;;;14.99;49.31;101346.63;5155243;27;45362;-65
2022/04/26 08:42:44;;;;;;;;;58.00;44.00;;;;;14.97;49.26;101339.41;5153931;27;45412;-64
2022/04/26 08:45:12;;;;;;;;;59.50;44.50;;;;;15.02;49.57;101348.47;5155065;27;45545;-65
2022/04/26 08:53:08;;;;;;;;;55.75;42.25;;;;;15.05;48.86;101349.44;5154901;27;45343;-65
2022/04/26 08:55:43;;;;;;;;;58.00;46.00;;;;;15.01;48.63;101357.41;5156293;27;45475;-65
2022/04/26 08:58:11;;;;;;;;;57.75;41.75;;;;;15.01;49.09;101365.50;5158826;27;45477;-64
2022/04/26 09:00:42;;;;;;;;;51.25;41.75;;;;;15.08;48.99;101362.06;5158184;27;46056;-65
2022/04/26 09:03:08;;;;;;;;;50.25;42.00;;;;;15.14;48.66;101354.06;5158327;27;45623;-65
2022/04/26 09:05:34;;;;;;;;;57.00;44.25;;;;;15.15;47.99;101371.13;5157981;27;45382;-65
2022/04/26 09:08:00;;;;;;;;;60.75;47.50;;;;;15.22;47.92;101370.34;5158482;27;45496;-70
2022/04/26 09:10:26;;;;;;;;;53.00;44.00;;;;;15.36;48.08;101365.19;5143700;27;47225;-64
2022/04/26 09:13:12;;;;;;;;;55.50;45.50;;;;;15.51;48.11;101357.38;5157620;27;45438;-71
2022/04/26 09:15:55;;;;;;;;;53.25;42.75;;;;;15.69;47.46;101363.91;5137065;27;45645;-70
2022/04/26 09:18:22;;;;;;;;;54.50;42.50;;;;;15.72;47.29;101364.88;5157966;27;45395;-66
2022/04/26 09:20:49;;;;;;;;;56.25;45.25;;;;;15.71;46.89;101373.84;5157224;27;46200;-71
2022/04/26 09:23:22;;;;;;;;;54.75;44.00;;;;;15.71;46.71;101381.03;5157783;27;45444;-65
2022/04/26 09:25:53;;;;;;;;;59.25;45.00;;;;;15.62;47.05;101381.78;5157770;27;45551;-66
2022/04/26 09:28:23;;;;;;;;;55.50;44.75;;;;;15.63;46.92;101372.81;5139402;27;45353;-69
2022/04/26 09:30:49;;;;;;;;;67.75;49.50;;;;;15.60;47.22;101387.13;5155114;27;47282;-68
2022/04/26 09:33:38;;;;;;;;;58.25;44.75;;;;;15.56;46.99;101393.38;5153779;27;45414;-70
2022/04/26 09:36:11;;;;;;;;;54.25;45.25;;;;;15.61;47.45;101383.56;5157700;27;45493;-70
2022/04/26 09:38:38;;;;;;;;;52.75;44.25;;;;;15.63;47.31;101386.28;5158093;27;45582;-64
2022/04/26 09:41:06;;;;;;;;;59.25;46.50;;;;;15.65;47.36;101387.22;5157570;27;47036;-65
2022/04/26 09:43:32;;;;;;;;;53.75;43.50;;;;;15.69;47.03;101385.47;5138920;27;45624;-65
2022/04/26 09:45:59;;;;;;;;;56.75;45.75;;;;;15.69;47.44;101389.09;5157644;27;44866;-66
2022/04/26 09:48:32;;;;;;;;;61.00;47.00;;;;;15.73;47.20;101395.44;5157835;27;45693;-67
2022/04/26 09:50:58;;;;;;;;;56.50;45.50;;;;;15.61;46.98;101379.97;5157517;27;48063;-65
2022/04/26 09:53:26;;;;;;;;;56.50;45.00;;;;;15.67;47.39;101393.53;5157610;27;45642;-69
2022/04/26 09:55:56;;;;;;;;;56.75;44.00;;;;;15.68;47.59;101398.03;5156912;27;45618;-66
2022/04/26 09:58:23;;;;;;;;;62.25;47.25;;;;;15.62;47.20;101380.00;5155660;27;45610;-65
2022/04/26 10:00:50;;;;;;;;;56.25;45.00;;;;;15.82;47.08;101398.28;5157445;27;46133;-65
2022/04/26 10:03:28;;;;;;;;;62.25;46.75;;;;;15.76;47.18;101387.44;5157585;27;45395;-66
2022/04/26 10:05:59;;;;;;;;;56.50;44.25;;;;;15.71;46.85;101372.97;5150098;27;45703;-66
2022/04/26 10:08:28;;;;;;;;;60.25;47.00;;;;;15.93;46.86;101403.84;5151710;27;45447;-66
2022/04/26 10:10:54;;;;;;;;;58.25;45.00;;;;;15.81;46.50;101381.22;5157557;27;45424;-68
2022/04/26 10:13:34;;;;;;;;;57.00;44.75;;;;;16.08;46.31;101406.75;5157980;27;45570;-68
2022/04/26 10:16:09;;;;;;;;;61.50;46.00;;;;;16.02;45.96;101367.16;5157906;27;45508;-66
2022/04/26 10:18:39;;;;;;;;;60.50;45.75;;;;;16.32;45.36;101384.63;5157947;27;45353;-72
2022/04/26 10:21:06;;;;;;;;;57.50;44.25;;;;;16.56;45.20;101404.69;5156894;27;45984;-71
2022/04/26 10:23:50;;;;;;;;;57.50;43.25;;;;;16.56;44.84;101411.00;5157267;27;45531;-67
2022/04/26 10:26:22;;;;;;;;;55.50;44.50;;;;;16.61;44.49;101411.03;5158160;27;45736;-67
2022/04/26 10:28:57;;;;;;;;;58.00;45.25;;;;;16.62;44.47;101409.28;5157224;27;45509;-69
2022/04/26 10:31:45;;;;;;;;;55.00;42.25;;;;;16.75;44.40;101408.53;5138551;27;47356;-69
2022/04/26 10:34:31;;;;;;;;;61.00;46.50;;;;;16.91;43.71;101410.53;5153202;27;45537;-70
2022/04/26 10:37:01;;;;;;;;;55.50;42.50;;;;;17.16;43.57;101412.56;5150548;27;46423;-66
2022/04/26 10:39:37;;;;;;;;;57.25;43.50;;;;;17.33;42.26;101400.16;5157102;27;45412;-67
2022/04/26 10:42:26;;;;;;;;;57.25;45.25;;;;;17.28;41.69;101391.09;5153563;27;46391;-69
2022/04/26 10:44:56;;;;;;;;;55.75;43.25;;;;;17.37;42.17;101407.38;5152517;27;46455;-69
2022/04/26 10:47:24;;;;;;;;;58.50;43.50;;;;;17.36;42.68;101408.28;5155101;27;45205;-71
2022/04/26 10:49:51;;;;;;;;;55.00;43.50;;;;;17.44;42.45;101409.25;5157324;27;45490;-73
2022/04/26 10:52:22;;;;;;;;;61.75;46.00;;;;;17.05;42.06;101342.28;5137169;27;47325;-69
2022/04/26 10:57:23;;;;;;;;;46.25;40.50;;;;;17.66;42.02;101404.03;5150672;27;45318;-73
2022/04/26 11:00:01;;;;;;;;;56.75;41.75;;;;;17.71;41.50;101404.06;5156469;27;45442;-69
2022/04/26 11:02:29;;;;;;;;;56.50;46.00;;;;;17.73;41.51;101399.56;5149892;27;46338;-70
2022/04/26 11:04:59;;;;;;;;;53.50;40.75;;;;;17.81;41.67;101404.13;5156113;27;45609;-68
2022/04/26 11:07:27;;;;;;;;;54.75;46.00;;;;;17.89;41.62;101411.44;5155881;27;45465;-72
2022/04/26 11:09:54;;;;;;;;;56.25;42.75;;;;;17.85;41.56;101410.44;5155963;27;45651;-70
2022/04/26 11:12:22;;;;;;;;;58.50;47.50;;;;;17.88;41.61;101406.91;5136658;27;47141;-66
2022/04/26 11:14:48;;;;;;;;;46.75;36.50;;;;;17.91;41.04;101412.34;5153467;27;45703;-69
2022/04/26 11:17:16;;;;;;;;;45.75;38.75;;;;;17.83;41.51;101406.84;5155721;27;45415;-75
2022/04/26 11:20:12;;;;;;;;;49.25;41.50;;;;;17.68;40.98;101384.22;5150642;27;45431;-66
2022/04/26 11:22:57;;;;;;;;;59.00;42.75;;;;;17.82;40.84;101403.25;5152107;27;45392;-67
2022/04/26 11:28:11;;;;;;;;;53.25;38.50;;;;;17.79;41.25;101400.50;5156143;27;45418;-68
2022/04/26 11:30:48;;;;;;;;;47.75;38.50;;;;;17.91;41.40;101402.44;5154610;27;45560;-69
2022/04/26 11:33:24;;;;;;;;;46.75;37.50;;;;;17.96;41.17;101397.94;5155749;27;45435;-67
2022/04/26 11:35:53;;;;;;;;;49.25;39.25;;;;;18.04;40.80;101398.00;5147584;27;45542;-67
2022/04/26 11:38:19;;;;;;;;;45.00;38.75;;;;;18.01;40.48;101385.38;5148213;27;45499;-65
2022/04/26 11:40:50;;;;;;;;;54.50;39.50;;;;;18.04;40.79;101396.19;5153559;27;45873;-70
2022/04/26 11:43:23;;;;;;;;;54.50;43.50;;;;;17.96;40.91;101394.34;5153113;27;45537;-71
2022/04/26 11:45:50;;;;;;;;;49.00;36.25;;;;;18.00;41.26;101401.56;5155170;27;45522;-68
2022/04/26 11:48:20;;;;;;;;;48.00;37.25;;;;;17.88;41.20;101388.00;5155564;27;45564;-67
2022/04/26 11:50:51;;;;;;;;;51.75;41.00;;;;;18.05;40.96;101407.94;5155913;27;45529;-68
2022/04/26 11:53:18;;;;;;;;;51.00;38.25;;;;;17.98;41.37;101401.59;5152822;27;46285;-71
2022/04/26 11:55:53;;;;;;;;;44.50;34.25;;;;;17.91;41.76;101388.03;5155330;27;45538;-68
2022/04/26 11:58:38;;;;;;;;;38.25;31.50;;;;;18.06;40.79;101409.72;5155403;27;45566;-67
2022/04/26 12:01:15;;;;;;;;;50.00;35.50;;;;;18.14;40.88;101402.56;5155817;27;45362;-71
2022/04/26 12:03:44;;;;;;;;;43.75;36.25;;;;;18.21;40.58;101404.44;5151066;27;45407;-74
2022/04/26 12:06:11;;;;;;;;;51.00;37.75;;;;;18.13;40.94;101405.25;5157324;27;45452;-74
2022/04/26 12:08:41;;;;;;;;;38.00;33.50;;;;;18.09;40.65;101404.34;5154811;27;45474;-68
2022/04/26 12:11:23;;;;;;;;;40.00;34.75;;;;;18.07;40.70;101414.25;5157582;27;45493;-70
2022/04/26 12:14:07;;;;;;;;;50.00;37.75;;;;;17.99;40.89;101402.50;5158574;27;45971;-71
2022/04/26 12:16:36;;;;;;;;;40.00;34.25;;;;;17.96;40.79;101397.06;5142849;27;45692;-73
2022/04/26 12:19:03;;;;;;;;;46.00;37.25;;;;;17.90;41.23;101394.31;5154182;27;45438;-72
2022/04/26 12:21:42;;;;;;;;;37.50;34.25;;;;;17.96;40.74;101413.28;5154636;27;45389;-74
2022/04/26 12:24:13;;;;;;;;;39.50;30.75;;;;;17.99;40.96;101403.38;5151053;27;46551;-74
2022/04/26 12:26:53;;;;;;;;;33.00;32.25;;;;;18.04;40.30;101414.22;5154950;27;45448;-70
2022/04/26 12:29:18;;;;;;;;;41.75;33.25;;;;;18.02;40.16;101413.31;5153059;27;45444;-74
2022/04/26 12:31:47;;;;;;;;;53.75;40.50;;;;;18.00;40.44;101405.22;5139113;27;45572;-72
2022/04/26 12:34:58;;;;;;;;;37.00;33.25;;;;;18.00;40.74;101409.69;5153001;27;46232;-72
2022/04/26 12:37:29;;;;;;;;;38.50;34.50;;;;;18.09;40.32;101407.06;5130740;27;45514;-70
2022/04/26 12:39:59;;;;;;;;;37.25;33.00;;;;;18.03;39.68;101367.38;5154565;27;45282;-73
2022/04/26 12:42:27;;;;;;;;;35.50;32.75;;;;;18.25;39.79;101402.63;5158809;27;45437;-69
2022/04/26 12:44:56;;;;;;;;;35.50;32.25;;;;;18.22;39.80;101408.03;5151265;27;45547;-70
2022/04/26 12:53:06;;;;;;;;;39.75;32.25;;;;;18.32;39.21;101396.34;5153714;27;45509;-73
2022/04/26 12:55:38;;;;;;;;;26.75;24.25;;;;;18.35;38.93;101390.97;5157745;27;45110;-74
2022/04/26 12:58:11;;;;;;;;;32.50;29.50;;;;;18.33;38.83;101379.25;5157984;27;45542;-69
2022/04/26 13:00:42;;;;;;;;;29.50;26.50;;;;;18.48;38.34;101389.22;5152448;27;45362;-67
2022/04/26 13:03:09;;;;;;;;;29.50;25.00;;;;;18.56;38.04;101392.84;5154572;27;45840;-66
2022/04/26 13:05:45;;;;;;;;;28.75;25.25;;;;;18.36;38.14;101335.03;5155710;27;47065;-73
2022/04/26 13:08:12;;;;;;;;;30.75;24.75;;;;;18.74;38.06;101391.09;5158328;27;45568;-72
2022/04/26 13:10:40;;;;;;;;;32.25;28.50;;;;;18.86;38.10;101387.53;5153737;27;45541;-73
2022/04/26 13:13:06;;;;;;;;;31.25;30.25;;;;;18.96;37.65;101379.47;5148842;27;45525;-71
2022/04/26 13:15:31;;;;;;;;;25.25;23.50;;;;;18.93;37.90;101363.22;5147756;27;46023;-75
2022/04/26 13:17:57;;;;;;;;;26.75;23.00;;;;;19.13;37.80;101386.72;5156996;27;45728;-70
2022/04/26 13:20:22;;;;;;;;;32.25;24.25;;;;;19.12;37.65;101382.19;5132583;27;45461;-70
2022/04/26 13:22:48;;;;;;;;;26.75;23.25;;;;;19.13;37.70;101382.19;5158401;27;45430;-72
2022/04/26 13:25:13;;;;;;;;;28.75;23.00;;;;;19.23;37.47;101384.91;5154037;27;45386;-72
2022/04/26 13:27:39;;;;;;;;;30.50;22.50;;;;;19.27;37.02;101382.22;5151075;27;45478;-73
2022/04/26 13:30:07;;;;;;;;;25.50;25.50;;;;;19.24;36.96;101373.19;5157812;27;45608;-67
2022/04/26 13:32:32;;;;;;;;;25.75;23.25;;;;;19.34;37.21;101361.44;5156894;27;45650;-67
2022/04/26 13:34:58;;;;;;;;;31.25;28.00;;;;;19.39;36.58;101366.88;5157128;27;45760;-68
2022/04/26 13:37:24;;;;;;;;;50.00;36.00;;;;;19.33;36.85;101357.81;5157966;27;45601;-67
2022/04/26 13:39:50;;;;;;;;;30.25;28.00;;;;;19.52;36.66;101366.84;5155609;27;45498;-73
2022/04/26 13:42:16;;;;;;;;;26.75;24.00;;;;;19.37;36.24;101320.81;5156500;27;45540;-71
2022/04/26 13:44:42;;;;;;;;;25.50;25.50;;;;;19.59;36.39;101372.28;5156061;27;46306;-72
2022/04/26 13:47:08;;;;;;;;;25.75;23.25;;;;;19.52;36.30;101365.97;5157637;27;45559;-72
2022/04/26 13:49:34;;;;;;;;;33.50;26.50;;;;;19.39;36.75;101364.16;5157626;27;45370;-73
2022/04/26 13:52:01;;;;;;;;;22.75;20.25;;;;;19.30;36.88;101357.84;5154717;27;45491;-70
2022/04/26 13:54:29;;;;;;;;;32.50;26.25;;;;;19.45;37.36;101350.59;5147194;27;46362;-74
2022/04/26 13:56:55;;;;;;;;;24.50;23.00;;;;;19.79;36.58;101337.03;5153077;27;45729;-72
2022/04/26 13:59:22;;;;;;;;;37.75;33.00;;;;;20.10;36.00;101346.00;5155412;27;45413;-71
2022/04/26 14:01:51;;;;;;;;;26.50;22.75;;;;;20.51;35.81;101333.13;5149066;27;45398;-72
2022/04/26 14:04:17;;;;;;;;;27.75;22.25;;;;;20.89;34.83;101341.09;5151659;27;46129;-70
2022/04/26 14:06:42;;;;;;;;;21.75;20.50;;;;;21.11;33.63;101339.09;5146020;27;45470;-71
2022/04/26 14:09:08;;;;;;;;;26.25;25.25;;;;;21.21;33.97;101342.66;5157342;27;45435;-68
2022/04/26 14:11:34;;;;;;;;;45.00;39.75;;;;;21.22;33.54;101343.53;5157469;27;45613;-71
2022/04/26 14:22:11;;;;;;;;;22.50;22.25;;;;;21.42;32.90;101337.97;5151927;27;45420;-70
2022/04/26 14:24:38;;;;;;;;;26.00;20.50;;;;;21.37;32.57;101323.53;5155652;27;45435;-70
2022/04/26 14:27:03;;;;;;;;;35.50;29.25;;;;;21.29;32.95;101340.78;5157820;27;45400;-69
2022/04/26 14:29:28;;;;;;;;;23.50;22.00;;;;;21.32;33.20;101329.00;5158130;27;45274;-66
2022/04/26 14:31:54;;;;;;;;;28.25;23.75;;;;;21.26;32.97;101326.31;5157759;27;45474;-66
2022/04/26 14:34:19;;;;;;;;;22.50;19.25;;;;;20.89;32.82;101291.31;5138191;27;47266;-69
2022/04/26 14:36:44;;;;;;;;;20.25;20.25;;;;;21.27;32.16;101329.03;5157352;27;45397;-67
2022/04/26 14:39:12;;;;;;;;;24.50;19.00;;;;;21.87;31.13;101294.91;5152283;27;45378;-68
2022/04/26 14:41:38;;;;;;;;;22.25;17.75;;;;;22.32;30.73;101327.94;5153629;27;45650;-67
2022/04/26 14:44:03;;;;;;;;;19.00;15.75;;;;;22.32;30.96;101341.56;5156904;27;46900;-68
2022/04/26 14:46:28;;;;;;;;;22.00;19.25;;;;;22.15;30.70;101325.41;5157075;27;45336;-71
2022/04/26 14:48:54;;;;;;;;;21.75;20.50;;;;;21.96;30.91;101334.72;5157612;27;45716;-70
2022/04/26 14:51:19;;;;;;;;;17.75;16.75;;;;;21.59;31.18;101316.09;5157272;27;45504;-71
2022/04/26 14:53:45;;;;;;;;;18.25;17.75;;;;;21.42;31.18;101340.69;5156519;27;46111;-71
2022/04/26 14:56:10;;;;;;;;;17.25;17.25;;;;;21.10;31.78;101337.31;5156717;27;45554;-68
2022/04/26 14:58:35;;;;;;;;;13.50;12.50;;;;;20.96;31.79;101348.28;5148931;27;45475;-73
2022/04/26 15:01:02;;;;;;;;;18.75;15.75;;;;;20.84;31.72;101323.00;5157398;27;45429;-68
2022/04/26 15:03:27;;;;;;;;;18.75;14.75;;;;;20.99;31.96;101312.06;5156857;27;45466;-69
2022/04/26 15:05:54;;;;;;;;;15.33;13.33;;;;;21.12;31.16;101329.16;5148415;27;45305;-72
2022/04/26 15:11:03;;;;;;;;;15.50;13.25;;;;;21.11;31.61;101325.53;5150728;27;45408;-71
2022/04/26 15:18:56;;;;;;;;;12.25;11.00;;;;;20.71;32.04;101335.78;5156134;27;45584;-66
2022/04/26 15:21:23;;;;;;;;;20.00;17.50;;;;;20.51;32.00;101334.06;5156386;27;45323;-68
2022/04/26 15:23:49;;;;;;;;;13.50;12.25;;;;;20.33;32.32;101323.28;5128715;27;46857;-67
2022/04/26 15:26:15;;;;;;;;;18.25;18.25;;;;;20.03;32.39;101274.59;5155626;27;45386;-66
2022/04/26 15:28:41;;;;;;;;;15.50;15.50;;;;;20.31;32.54;101317.88;5133029;27;45578;-73
2022/04/26 15:31:07;;;;;;;;;17.50;15.00;;;;;19.89;32.92;101262.88;5137414;27;45527;-66